This is the latest recevied weather packets stored in our database for station/object KO6LQJ. If no packets are shown the sender has not sent any weather packets the latest 10 day(s).
| Time | Temp. | Humidity | Pressure | Rain* | Wind** | Luminosity | Snow |
|---|---|---|---|---|---|---|---|
| 1778005103 | 17.22° C | 50% | 1016.6 hPa | 0 mm | - | 180 W/m² | - |
| 1778004800 | 17.22° C | 50% | 1016.7 hPa | 0 mm | - | 160 W/m² | - |
| 1778004496 | 17.78° C | 50% | 1016.7 hPa | 0 mm | - | 177 W/m² | - |
| 1778004193 | 17.78° C | 49% | 1016.6 hPa | 0 mm | - | 209 W/m² | - |
| 1778003889 | 17.78° C | 48% | 1016.5 hPa | 0 mm | - | 222 W/m² | - |
| 1778003586 | 17.78° C | 49% | 1016.7 hPa | 0 mm | - | 212 W/m² | - |
| 1778003282 | 17.22° C | 51% | 1016.7 hPa | 0 mm | - | 272 W/m² | - |
| 1778002980 | 17.22° C | 50% | 1016.5 hPa | 0 mm | - | 214 W/m² | - |
| 1778002676 | 17.22° C | 50% | 1016.3 hPa | 0 mm | - | 180 W/m² | - |
| 1778002372 | 17.22° C | 50% | 1016.5 hPa | 0 mm | - | 145 W/m² | - |
| 1778002069 | 17.22° C | 52% | 1016.4 hPa | 0 mm | - | 140 W/m² | - |
| 1778001766 | 16.67° C | 53% | 1016.3 hPa | 0 mm | - | 133 W/m² | - |
| 1778001466 | 16.67° C | 52% | 1016.2 hPa | 0 mm | - | 149 W/m² | - |
| 1778001163 | 16.67° C | 53% | 1016.1 hPa | 0 mm | - | 168 W/m² | - |
| 1778000861 | 16.67° C | 53% | 1016.4 hPa | 0 mm | - | 174 W/m² | - |
| 1778000558 | 16.67° C | 53% | 1016.4 hPa | 0 mm | - | 151 W/m² | - |
| 1777999954 | 16.11° C | 53% | 1016.3 hPa | 0 mm | - | 147 W/m² | - |
| 1777999650 | 16.11° C | 56% | 1016.2 hPa | 0 mm | - | 128 W/m² | - |
| 1777999347 | 16.11° C | 57% | 1016.2 hPa | 0 mm | - | 107 W/m² | - |
| 1777999045 | 16.11° C | 57% | 1016 hPa | 0 mm | - | 97 W/m² | - |
| 1777998744 | 16.67° C | 56% | 1016.1 hPa | 0 mm | - | 114 W/m² | - |
| 1777998441 | 16.67° C | 56% | 1016.1 hPa | 0 mm | - | 132 W/m² | - |
| 1777998138 | 17.22° C | 54% | 1016.3 hPa | 0 mm | - | 185 W/m² | - |
| 1777997834 | 17.78° C | 54% | 1016 hPa | 0 mm | - | 262 W/m² | - |
| 1777997532 | 16.67° C | 58% | 1016 hPa | 0 mm | - | 651 W/m² | - |
* Rain latest hour (hover to see other rain measurements)
** Current wind speed in m/s (hover to see current wind gust speed)